Time;durP1;ratioP1;P1;durP2;ratioP2;P2;SDS_P1;SDS_P2;PMS_P1;PMS_P2;Temp;Humidity;BMP_temperature;BMP_pressure;BME280_temperature;BME280_humidity;BME280_pressure;Samples;Min_cycle;Max_cycle;Signal;HPM_P1;HPM_P2
2022/11/28 00:04:52;;;;;;;48.30;20.30;;;;;;;4.41;100.00;101434.95;661860;1309;139528;-78
2022/11/28 00:19:56;;;;;;;61.40;25.30;;;;;;;4.43;100.00;101423.25;661099;1308;138761;-78
2022/11/28 00:34:59;;;;;;;65.10;33.90;;;;;;;4.42;100.00;101419.67;661446;1310;138895;-79
2022/11/28 00:50:03;;;;;;;111.70;39.10;;;;;;;4.45;100.00;101420.06;661515;1309;139447;-78
2022/11/28 01:05:07;;;;;;;69.60;27.60;;;;;;;4.42;100.00;101417.56;661465;1310;139138;-78
2022/11/28 01:20:11;;;;;;;66.10;28.60;;;;;;;4.45;100.00;101415.90;661205;1290;138726;-78
2022/11/28 01:35:14;;;;;;;75.10;29.20;;;;;;;4.35;100.00;101398.66;661720;1304;138883;-78
2022/11/28 01:50:19;;;;;;;53.70;25.30;;;;;;;4.41;100.00;101379.01;661698;1304;139068;-78
2022/11/28 02:05:23;;;;;;;97.80;37.70;;;;;;;4.49;100.00;101368.59;661635;1309;138926;-78
2022/11/28 02:20:38;;;;;;;49.30;23.20;;;;;;;4.51;100.00;101353.94;661579;1310;139489;-77
2022/11/28 02:36:11;;;;;;;77.60;30.80;;;;;;;4.54;100.00;101347.41;661327;1310;278155;-78
2022/11/28 02:51:29;;;;;;;53.50;23.80;;;;;;;4.57;100.00;101332.56;661079;1310;139227;-78
2022/11/28 03:06:52;;;;;;;104.70;41.30;;;;;;;4.49;100.00;101328.90;661588;1310;139522;-77
2022/11/28 03:22:17;;;;;;;74.90;29.80;;;;;;;4.43;100.00;101318.44;661259;1310;139036;-78
2022/11/28 03:37:26;;;;;;;67.20;27.70;;;;;;;4.44;100.00;101323.24;661089;1311;138756;-78
2022/11/28 03:52:40;;;;;;;53.80;23.80;;;;;;;4.45;100.00;101318.52;661319;1298;138705;-78
2022/11/28 04:07:57;;;;;;;61.20;25.60;;;;;;;4.42;100.00;101313.83;661500;1304;138682;-78
2022/11/28 04:23:07;;;;;;;47.20;18.20;;;;;;;4.46;100.00;101310.34;661588;1305;139013;-78
2022/11/28 04:38:12;;;;;;;41.30;17.80;;;;;;;4.30;100.00;101302.40;661355;1310;138762;-77
2022/11/28 04:53:31;;;;;;;56.50;30.90;;;;;;;4.27;100.00;101308.45;661498;1310;138632;-77
2022/11/28 05:08:34;;;;;;;62.30;29.00;;;;;;;4.28;100.00;101310.10;661623;1301;139183;-76
2022/11/28 05:23:40;;;;;;;44.50;19.30;;;;;;;4.33;100.00;101308.02;661490;1302;138738;-76
2022/11/28 05:38:44;;;;;;;56.30;22.00;;;;;;;4.25;100.00;101294.01;661112;1305;138819;-76
2022/11/28 05:53:47;;;;;;;69.10;26.50;;;;;;;4.41;100.00;101289.61;661333;1310;139163;-76
2022/11/28 06:08:51;;;;;;;63.90;27.10;;;;;;;4.42;100.00;101287.65;661337;1311;140710;-76
2022/11/28 06:23:56;;;;;;;46.70;21.70;;;;;;;4.43;100.00;101291.27;661277;1310;138743;-76
2022/11/28 06:39:00;;;;;;;58.60;23.20;;;;;;;4.34;100.00;101290.45;662330;1303;139300;-76
2022/11/28 06:54:04;;;;;;;87.20;38.00;;;;;;;4.36;100.00;101290.89;661675;1310;138945;-76
2022/11/28 07:09:07;;;;;;;59.50;25.70;;;;;;;4.32;100.00;101287.25;661518;1302;138711;-76
2022/11/28 07:24:10;;;;;;;135.00;49.20;;;;;;;4.18;100.00;101281.29;661447;1310;139531;-76
2022/11/28 07:39:16;;;;;;;49.40;20.40;;;;;;;4.29;100.00;101285.66;661563;1307;139378;-77
2022/11/28 07:54:19;;;;;;;81.70;40.00;;;;;;;4.20;100.00;101292.48;661400;1310;138919;-76
2022/11/28 08:09:23;;;;;;;171.70;58.30;;;;;;;4.28;100.00;101283.97;661546;1310;138986;-76
2022/11/28 08:24:26;;;;;;;129.40;50.50;;;;;;;4.29;100.00;101286.20;661454;1310;138906;-76
2022/11/28 08:39:29;;;;;;;107.60;36.70;;;;;;;4.11;100.00;101284.72;661722;1310;138754;-77
2022/11/28 08:54:33;;;;;;;123.50;54.30;;;;;;;4.09;100.00;101279.77;661532;1296;138902;-76
2022/11/28 09:09:36;;;;;;;109.70;40.70;;;;;;;4.18;100.00;101271.95;661464;1310;138923;-76
2022/11/28 09:24:40;;;;;;;208.10;71.80;;;;;;;4.39;100.00;101263.73;661626;1310;138923;-76
2022/11/28 09:39:43;;;;;;;265.10;79.50;;;;;;;4.49;100.00;101258.77;661433;1305;138781;-76
2022/11/28 09:55:16;;;;;;;111.30;43.50;;;;;;;4.69;100.00;101250.54;661494;1310;138974;-76
2022/11/28 10:10:37;;;;;;;206.10;57.50;;;;;;;5.00;100.00;101234.84;661671;1302;138842;-76
2022/11/28 10:25:48;;;;;;;149.70;47.40;;;;;;;5.31;100.00;101225.84;661332;1310;138990;-76
2022/11/28 10:41:03;;;;;;;93.90;35.70;;;;;;;5.57;100.00;101213.20;661533;1310;138866;-76
2022/11/28 10:56:39;;;;;;;194.30;73.00;;;;;;;5.70;100.00;101206.31;661252;1310;138673;-76
2022/11/28 11:11:56;;;;;;;95.40;37.80;;;;;;;5.74;100.00;101201.05;661357;1310;139283;-76
2022/11/28 11:27:15;;;;;;;102.90;38.50;;;;;;;5.71;100.00;101196.02;661252;1310;139033;-76
2022/11/28 11:42:27;;;;;;;87.70;37.40;;;;;;;5.77;100.00;101204.55;661138;1306;139598;-76
2022/11/28 11:57:38;;;;;;;118.10;49.90;;;;;;;5.90;100.00;101194.48;661503;1310;138936;-77
2022/11/28 12:12:42;;;;;;;213.00;91.30;;;;;;;5.87;100.00;101195.48;661706;1304;138937;-76
2022/11/28 12:28:00;;;;;;;244.10;88.20;;;;;;;5.92;100.00;101203.60;661811;1310;139333;-76
2022/11/28 12:43:22;;;;;;;194.40;73.60;;;;;;;5.89;100.00;101194.52;661717;1294;138981;-76
2022/11/28 12:58:29;;;;;;;165.90;92.60;;;;;;;5.81;100.00;101188.35;661587;1304;138838;-75
2022/11/28 13:13:40;;;;;;;99.10;45.70;;;;;;;5.85;100.00;101181.19;661220;1310;138949;-76
2022/11/28 13:28:58;;;;;;;220.90;85.70;;;;;;;5.85;100.00;101174.41;661427;1310;139068;-76
2022/11/28 13:44:21;;;;;;;382.50;122.60;;;;;;;5.84;100.00;101162.84;661466;1309;138869;-76
2022/11/28 13:59:25;;;;;;;169.20;61.90;;;;;;;5.71;100.00;101158.66;661452;1305;139317;-75
2022/11/28 14:14:47;;;;;;;238.30;91.00;;;;;;;5.66;100.00;101151.51;661250;1304;138926;-76
2022/11/28 14:29:54;;;;;;;196.20;80.30;;;;;;;5.66;100.00;101150.66;661118;1310;186984;-76
2022/11/28 14:45:00;;;;;;;167.00;63.70;;;;;;;5.54;100.00;101150.40;660888;1310;139788;-76
2022/11/28 15:00:16;;;;;;;165.30;65.00;;;;;;;5.53;100.00;101152.53;661228;1310;139284;-76
2022/11/28 15:15:21;;;;;;;266.40;93.70;;;;;;;5.42;100.00;101152.77;661331;1310;138933;-75
2022/11/28 15:30:25;;;;;;;334.80;95.00;;;;;;;5.35;100.00;101152.77;662540;1303;138995;-75
2022/11/28 15:45:36;;;;;;;189.80;59.40;;;;;;;5.33;100.00;101154.95;661589;1310;138914;-76
2022/11/28 16:00:44;;;;;;;243.00;72.60;;;;;;;5.31;100.00;101147.77;661301;1309;139658;-76
2022/11/28 16:15:49;;;;;;;155.10;52.10;;;;;;;5.35;100.00;101146.89;661286;1298;139024;-75
2022/11/28 16:30:52;;;;;;;116.40;43.80;;;;;;;5.27;100.00;101152.34;661430;1305;138827;-75
2022/11/28 16:46:01;;;;;;;136.50;51.10;;;;;;;5.33;100.00;101160.52;661426;1310;138888;-75
2022/11/28 17:01:07;;;;;;;253.80;89.20;;;;;;;5.29;100.00;101165.75;660934;1309;138954;-75
2022/11/28 17:16:21;;;;;;;107.20;38.30;;;;;;;5.23;100.00;101169.02;661562;1310;139114;-75
2022/11/28 17:31:25;;;;;;;245.10;88.80;;;;;;;5.15;100.00;101160.90;660658;1310;140378;-75
2022/11/28 17:46:28;;;;;;;117.00;43.90;;;;;;;5.10;100.00;101151.29;661328;1307;139115;-75
2022/11/28 18:01:32;;;;;;;106.00;42.80;;;;;;;5.05;100.00;101157.27;661187;1310;138936;-75
2022/11/28 18:16:38;;;;;;;111.00;46.20;;;;;;;4.97;100.00;101159.75;661207;1305;138904;-75
2022/11/28 18:31:42;;;;;;;101.50;38.40;;;;;;;5.05;100.00;101160.56;660786;1312;138955;-75
2022/11/28 18:46:46;;;;;;;137.60;48.50;;;;;;;5.05;100.00;101160.73;661104;1305;139046;-75
2022/11/28 19:01:49;;;;;;;93.20;29.40;;;;;;;4.99;100.00;101156.71;661179;1310;138986;-75
2022/11/28 19:16:53;;;;;;;114.50;38.10;;;;;;;4.99;100.00;101153.56;661310;1310;141518;-76
2022/11/28 19:31:58;;;;;;;139.30;43.30;;;;;;;4.93;100.00;101151.78;660845;1311;138921;-75
2022/11/28 19:47:02;;;;;;;122.30;40.80;;;;;;;4.92;100.00;101154.06;661295;1310;139068;-75
2022/11/28 20:02:08;;;;;;;82.60;30.10;;;;;;;4.88;100.00;101151.89;661381;1299;138935;-75
2022/11/28 20:17:13;;;;;;;89.10;32.70;;;;;;;4.77;100.00;101161.74;661422;1310;138759;-76
2022/11/28 20:32:18;;;;;;;89.30;33.10;;;;;;;4.69;100.00;101167.90;661192;1310;138600;-75
2022/11/28 20:47:22;;;;;;;70.50;27.80;;;;;;;4.65;100.00;101168.10;661311;1310;138783;-75
2022/11/28 21:02:26;;;;;;;68.40;28.90;;;;;;;4.55;100.00;101174.27;661007;1312;138699;-75
2022/11/28 21:17:29;;;;;;;84.30;31.50;;;;;;;4.50;100.00;101171.42;661042;1311;139030;-75
2022/11/28 21:32:33;;;;;;;75.10;28.90;;;;;;;4.50;100.00;101172.45;661030;1311;138761;-75
2022/11/28 21:47:37;;;;;;;63.00;26.10;;;;;;;4.40;100.00;101170.67;661691;1310;138779;-75
2022/11/28 22:02:40;;;;;;;68.20;27.00;;;;;;;4.40;100.00;101163.73;661158;1310;138602;-75
2022/11/28 22:17:44;;;;;;;74.90;27.20;;;;;;;4.39;100.00;101166.20;661525;1305;138754;-75
2022/11/28 22:32:49;;;;;;;66.20;27.70;;;;;;;4.36;100.00;101161.49;661545;1301;138674;-75
2022/11/28 22:47:54;;;;;;;60.60;23.20;;;;;;;4.35;100.00;101161.38;661414;1297;138776;-76
2022/11/28 23:02:57;;;;;;;57.10;22.00;;;;;;;4.24;99.71;101161.04;661312;1310;138648;-77
2022/11/28 23:18:00;;;;;;;55.90;22.90;;;;;;;4.13;99.19;101166.76;661458;1305;138918;-75
2022/11/28 23:33:05;;;;;;;127.20;40.70;;;;;;;4.00;98.44;101169.94;661404;1310;138573;-75
2022/11/28 23:48:11;;;;;;;84.70;30.70;;;;;;;3.94;98.41;101170.04;661472;1310;138940;-75
